createdAt,value
2023-05-01T00:00:58.241Z,77.54
2023-05-01T00:01:58.351Z,77.61
2023-05-01T00:02:58.275Z,77.62
2023-05-01T00:03:59.068Z,77.60
2023-05-01T00:04:58.242Z,77.58
2023-05-01T00:05:58.174Z,77.58
2023-05-01T00:06:58.173Z,77.58
2023-05-01T00:07:58.148Z,77.65
2023-05-01T00:08:58.225Z,77.69
2023-05-01T00:09:58.396Z,77.79
2023-05-01T00:10:58.089Z,77.83
2023-05-01T00:11:58.351Z,77.67
2023-05-01T00:12:58.086Z,77.38
2023-05-01T00:13:58.051Z,77.36
2023-05-01T00:14:58.350Z,77.38
2023-05-01T00:15:58.054Z,77.42
2023-05-01T00:16:58.336Z,77.46
2023-05-01T00:17:58.087Z,77.46
2023-05-01T00:18:58.000Z,77.55
2023-05-01T00:19:58.284Z,77.61
2023-05-01T00:20:57.976Z,77.55
2023-05-01T00:21:57.961Z,77.24
2023-05-01T00:22:57.987Z,77.00
2023-05-01T00:23:58.412Z,76.95
2023-05-01T00:24:57.937Z,76.93
2023-05-01T00:25:58.565Z,76.91
2023-05-01T00:26:58.372Z,76.89
2023-05-01T00:27:58.859Z,76.92
2023-05-01T00:28:57.889Z,76.98
2023-05-01T00:29:58.117Z,77.09
2023-05-01T00:30:58.704Z,77.27
2023-05-01T00:31:58.406Z,77.44
2023-05-01T00:32:58.077Z,77.72
2023-05-01T00:33:58.203Z,77.74
2023-05-01T00:34:57.832Z,78.01
2023-05-01T00:35:57.794Z,78.07
2023-05-01T00:36:57.790Z,78.11
2023-05-01T00:37:57.774Z,77.98
2023-05-01T00:38:57.779Z,77.89
2023-05-01T00:39:58.349Z,77.58
2023-05-01T00:40:57.743Z,77.31
2023-05-01T00:41:57.714Z,76.91
2023-05-01T00:42:58.380Z,76.74
2023-05-01T00:43:57.691Z,76.67
2023-05-01T00:44:57.702Z,76.73
2023-05-01T00:45:57.750Z,76.81
2023-05-01T00:46:57.997Z,76.84
2023-05-01T00:47:58.020Z,76.99
2023-05-01T00:48:58.047Z,77.02
2023-05-01T00:49:57.878Z,77.06
2023-05-01T00:50:57.633Z,77.05
2023-05-01T00:51:57.608Z,77.05
2023-05-01T00:52:57.616Z,77.06
2023-05-01T00:53:57.578Z,77.16
2023-05-01T00:54:57.672Z,77.19
2023-05-01T00:55:57.706Z,77.23
2023-05-01T00:56:57.761Z,77.26
2023-05-01T00:57:57.588Z,77.23
2023-05-01T00:58:57.551Z,77.18
2023-05-01T00:59:58.047Z,77.15
2023-05-01T01:00:57.531Z,77.13
2023-05-01T01:01:57.483Z,77.14
2023-05-01T01:02:57.548Z,77.28
2023-05-01T01:03:57.548Z,77.37
2023-05-01T01:04:57.606Z,77.52
2023-05-01T01:05:57.434Z,77.69
2023-05-01T01:06:57.436Z,77.71
2023-05-01T01:07:57.423Z,77.83
2023-05-01T01:08:57.412Z,77.93
2023-05-01T01:09:57.615Z,78.09
2023-05-01T01:10:57.402Z,78.28
2023-05-01T01:11:57.369Z,78.49
2023-05-01T01:12:57.396Z,78.58
2023-05-01T01:13:57.348Z,78.62
2023-05-01T01:14:57.345Z,78.63
2023-05-01T01:15:57.339Z,78.63
2023-05-01T01:16:57.353Z,78.61
2023-05-01T01:17:57.337Z,78.61
2023-05-01T01:18:57.409Z,78.69
2023-05-01T01:19:57.632Z,78.73
2023-05-01T01:20:57.271Z,78.74
2023-05-01T01:21:57.405Z,78.80
2023-05-01T01:22:57.268Z,78.63
2023-05-01T01:23:57.230Z,78.05
2023-05-01T01:24:57.237Z,77.92
2023-05-01T01:25:57.204Z,77.91
2023-05-01T01:26:57.415Z,77.90
2023-05-01T01:27:57.407Z,77.90
2023-05-01T01:28:57.196Z,77.89
2023-05-01T01:29:57.444Z,77.85
2023-05-01T01:30:57.221Z,77.74
2023-05-01T01:31:57.414Z,77.70
2023-05-01T01:32:57.165Z,77.64
2023-05-01T01:33:57.143Z,77.61
2023-05-01T01:34:57.412Z,77.59
2023-05-01T01:35:57.089Z,77.44
2023-05-01T01:36:57.430Z,77.44
2023-05-01T01:37:57.451Z,77.48
2023-05-01T01:38:57.083Z,77.72
2023-05-01T01:39:57.645Z,77.90
2023-05-01T01:40:57.050Z,78.11
2023-05-01T01:41:57.020Z,78.23
2023-05-01T01:42:57.104Z,78.54
2023-05-01T01:43:57.118Z,78.74
2023-05-01T01:44:56.996Z,78.84
2023-05-01T01:45:57.039Z,78.90
2023-05-01T01:46:56.975Z,78.83
2023-05-01T01:47:57.212Z,78.79
2023-05-01T01:48:56.970Z,78.76
2023-05-01T01:49:57.108Z,78.77
2023-05-01T01:50:56.939Z,78.80
2023-05-01T01:51:56.903Z,78.88
2023-05-01T01:52:57.389Z,78.84
2023-05-01T01:53:56.905Z,78.83
2023-05-01T01:54:56.897Z,78.88
2023-05-01T01:55:56.862Z,78.92
2023-05-01T01:56:56.871Z,78.90
2023-05-01T01:57:56.836Z,78.87
2023-05-01T01:58:57.375Z,78.79
2023-05-01T01:59:57.037Z,78.76
2023-05-01T02:00:56.811Z,78.70
2023-05-01T02:01:57.556Z,78.63
2023-05-01T02:02:56.849Z,78.49
2023-05-01T02:03:56.877Z,78.42
2023-05-01T02:04:56.786Z,78.45
2023-05-01T02:05:56.765Z,78.51
2023-05-01T02:06:57.449Z,78.55
2023-05-01T02:07:57.463Z,78.55
2023-05-01T02:08:56.725Z,78.50
2023-05-01T02:09:56.961Z,78.43
2023-05-01T02:10:56.706Z,78.41
2023-05-01T02:11:57.488Z,78.35
2023-05-01T02:12:57.481Z,78.36
2023-05-01T02:13:57.339Z,78.44
2023-05-01T02:14:57.427Z,78.54
2023-05-01T02:15:56.684Z,78.65
2023-05-01T02:16:56.660Z,78.78
2023-05-01T02:17:56.629Z,78.79
2023-05-01T02:18:56.608Z,78.83
2023-05-01T02:19:56.740Z,78.87
2023-05-01T02:20:56.583Z,78.97
2023-05-01T02:21:56.554Z,79.08
2023-05-01T02:22:56.629Z,79.17
2023-05-01T02:23:56.636Z,79.19
2023-05-01T02:24:56.568Z,79.29
2023-05-01T02:25:56.665Z,79.55
2023-05-01T02:26:56.517Z,79.75
2023-05-01T02:27:56.500Z,79.85
2023-05-01T02:28:56.492Z,79.88
2023-05-01T02:29:56.686Z,79.84
2023-05-01T02:30:56.570Z,79.87
2023-05-01T02:31:56.780Z,79.94
2023-05-01T02:32:56.493Z,80.01
2023-05-01T02:33:57.871Z,79.98
2023-05-01T02:34:56.472Z,79.89
2023-05-01T02:35:56.466Z,79.86
2023-05-01T02:36:56.406Z,79.85
2023-05-01T02:37:57.832Z,79.86
2023-05-01T02:38:56.820Z,79.87
2023-05-01T02:39:56.584Z,79.87
2023-05-01T02:40:56.473Z,79.91
2023-05-01T02:41:56.632Z,79.97
2023-05-01T02:42:56.333Z,80.00
2023-05-01T02:43:56.450Z,80.09
2023-05-01T02:44:56.328Z,80.24
2023-05-01T02:45:56.361Z,80.31
2023-05-01T02:46:56.349Z,80.36
2023-05-01T02:47:56.568Z,80.34
2023-05-01T02:48:56.364Z,80.33
2023-05-01T02:49:56.647Z,80.38
2023-05-01T02:50:56.261Z,80.30
2023-05-01T02:51:56.209Z,80.20
2023-05-01T02:52:56.212Z,80.21
2023-05-01T02:53:57.037Z,80.11
2023-05-01T02:54:56.192Z,80.06
2023-05-01T02:55:57.075Z,80.02
2023-05-01T02:56:56.490Z,80.03
2023-05-01T02:57:57.091Z,80.03
2023-05-01T02:58:56.167Z,79.97
2023-05-01T02:59:57.368Z,79.90
2023-05-01T03:00:56.151Z,79.80
2023-05-01T03:01:56.102Z,79.77
2023-05-01T03:02:56.609Z,79.70
2023-05-01T03:03:56.193Z,79.69
2023-05-01T03:04:56.089Z,79.77
2023-05-01T03:05:56.524Z,79.79
2023-05-01T03:06:56.061Z,79.87
2023-05-01T03:07:56.497Z,79.95
2023-05-01T03:08:56.044Z,80.01
2023-05-01T03:09:56.270Z,79.99
2023-05-01T03:10:56.051Z,80.08
2023-05-01T03:11:55.993Z,80.21
2023-05-01T03:12:55.998Z,80.30
2023-05-01T03:13:55.964Z,80.46
2023-05-01T03:14:56.506Z,80.73
2023-05-01T03:15:56.518Z,80.94
2023-05-01T03:16:56.029Z,81.00
2023-05-01T03:17:56.000Z,81.16
2023-05-01T03:18:55.927Z,81.24
2023-05-01T03:19:56.163Z,81.31
2023-05-01T03:20:55.901Z,81.34
2023-05-01T03:21:55.868Z,81.33
2023-05-01T03:22:55.884Z,81.29
2023-05-01T03:23:55.839Z,81.18
2023-05-01T03:24:55.942Z,81.13
2023-05-01T03:25:55.835Z,81.00
2023-05-01T03:26:55.832Z,80.96
2023-05-01T03:27:55.828Z,80.92
2023-05-01T03:28:55.792Z,80.84
2023-05-01T03:29:55.962Z,80.79
2023-05-01T03:30:55.823Z,80.61
2023-05-01T03:31:55.850Z,80.55
2023-05-01T03:32:57.246Z,80.53
2023-05-01T03:33:55.721Z,80.48
2023-05-01T03:34:55.858Z,80.52
2023-05-01T03:35:55.823Z,80.53
2023-05-01T03:36:55.707Z,80.55
2023-05-01T03:37:55.674Z,80.54
2023-05-01T03:38:55.671Z,80.56
2023-05-01T03:39:55.942Z,80.58
2023-05-01T03:40:55.746Z,80.59
2023-05-01T03:41:55.688Z,80.48
2023-05-01T03:42:55.630Z,80.40
2023-05-01T03:43:55.622Z,80.31
2023-05-01T03:44:55.611Z,80.22
2023-05-01T03:45:55.779Z,80.18
2023-05-01T03:46:55.590Z,80.17
2023-05-01T03:47:55.674Z,80.15
2023-05-01T03:48:55.576Z,80.15
2023-05-01T03:49:55.833Z,80.21
2023-05-01T03:50:55.561Z,80.26
2023-05-01T03:51:55.565Z,80.32
2023-05-01T03:52:55.501Z,80.45
2023-05-01T03:53:55.536Z,80.52
2023-05-01T03:54:55.493Z,80.65
2023-05-01T03:55:55.488Z,80.78
2023-05-01T03:56:55.463Z,80.94
2023-05-01T03:57:55.437Z,81.12
2023-05-01T03:58:55.451Z,81.25
2023-05-01T03:59:56.011Z,81.30
2023-05-01T04:00:55.443Z,81.33
2023-05-01T04:01:55.530Z,81.36
2023-05-01T04:02:55.716Z,81.36
2023-05-01T04:03:55.478Z,81.38
2023-05-01T04:04:55.387Z,81.43
2023-05-01T04:05:55.407Z,81.54
2023-05-01T04:06:55.369Z,81.61
2023-05-01T04:07:55.343Z,81.65
2023-05-01T04:08:55.331Z,81.65
2023-05-01T04:09:55.485Z,81.65
2023-05-01T04:10:55.320Z,81.60
2023-05-01T04:11:55.298Z,81.61
2023-05-01T04:12:55.296Z,81.56
2023-05-01T04:13:55.289Z,81.48
2023-05-01T04:14:55.280Z,81.45
2023-05-01T04:15:55.371Z,81.43
2023-05-01T04:16:55.262Z,81.44
2023-05-01T04:17:55.292Z,81.41
2023-05-01T04:18:55.258Z,81.33
2023-05-01T04:19:55.519Z,81.34
2023-05-01T04:20:55.245Z,81.30
2023-05-01T04:21:55.271Z,81.27
2023-05-01T04:22:55.221Z,81.20
2023-05-01T04:23:55.163Z,81.14
2023-05-01T04:24:55.168Z,81.04
2023-05-01T04:25:55.174Z,80.95
2023-05-01T04:26:55.261Z,80.88
2023-05-01T04:27:55.166Z,80.87
2023-05-01T04:28:55.153Z,80.80
2023-05-01T04:29:55.319Z,80.78
2023-05-01T04:30:55.115Z,80.75
2023-05-01T04:31:55.233Z,80.68
2023-05-01T04:32:55.127Z,80.62
2023-05-01T04:33:55.151Z,80.61
2023-05-01T04:34:55.027Z,80.57
2023-05-01T04:35:55.267Z,80.55
2023-05-01T04:36:55.142Z,80.59
2023-05-01T04:37:54.982Z,80.67
2023-05-01T04:38:54.959Z,80.74
2023-05-01T04:39:55.338Z,80.88
2023-05-01T04:40:54.957Z,80.96
2023-05-01T04:41:54.934Z,81.04
2023-05-01T04:42:54.908Z,81.17
2023-05-01T04:43:54.910Z,81.49
2023-05-01T04:44:54.890Z,81.62
2023-05-01T04:45:54.906Z,81.68
2023-05-01T04:46:54.924Z,81.81
2023-05-01T04:47:54.892Z,81.96
2023-05-01T04:48:55.367Z,82.05
2023-05-01T04:49:55.182Z,82.13
2023-05-01T04:50:54.998Z,82.21
2023-05-01T04:51:54.818Z,82.26
2023-05-01T04:52:54.840Z,82.36
2023-05-01T04:53:54.796Z,82.36
2023-05-01T04:54:54.896Z,82.30
2023-05-01T04:55:54.784Z,82.15
2023-05-01T04:56:54.742Z,82.04
2023-05-01T04:57:54.981Z,82.02
2023-05-01T04:58:54.723Z,82.06
2023-05-01T04:59:54.962Z,82.01
2023-05-01T05:00:54.703Z,82.01
2023-05-01T05:01:54.827Z,82.01
2023-05-01T05:02:54.895Z,82.01
2023-05-01T05:03:54.815Z,81.95
2023-05-01T05:04:54.667Z,81.91
2023-05-01T05:05:54.846Z,81.90
2023-05-01T05:06:54.702Z,81.93
2023-05-01T05:07:54.646Z,81.96
2023-05-01T05:08:54.597Z,82.05
2023-05-01T05:09:54.775Z,82.22
2023-05-01T05:10:54.579Z,82.26
2023-05-01T05:11:54.596Z,82.29
2023-05-01T05:12:54.565Z,82.41
2023-05-01T05:13:54.571Z,82.49
2023-05-01T05:14:54.543Z,82.52
2023-05-01T05:15:54.644Z,82.53
2023-05-01T05:16:54.554Z,82.45
2023-05-01T05:17:56.579Z,82.32
2023-05-01T05:18:54.482Z,82.29
2023-05-01T05:19:54.787Z,82.34
2023-05-01T05:20:54.471Z,82.38
2023-05-01T05:21:54.480Z,82.27
2023-05-01T05:22:54.446Z,82.09
2023-05-01T05:23:54.432Z,82.04
2023-05-01T05:24:54.411Z,81.96
2023-05-01T05:25:54.422Z,81.89
2023-05-01T05:26:54.593Z,81.86
2023-05-01T05:27:54.408Z,81.70
2023-05-01T05:28:54.369Z,81.70
2023-05-01T05:29:54.688Z,81.71
2023-05-01T05:30:54.474Z,81.69
2023-05-01T05:31:54.432Z,81.70
2023-05-01T05:32:54.530Z,81.70
2023-05-01T05:33:54.367Z,81.70
2023-05-01T05:34:54.629Z,81.68
2023-05-01T05:35:54.592Z,81.66
2023-05-01T05:36:55.130Z,81.59
2023-05-01T05:37:54.614Z,81.42
2023-05-01T05:38:54.259Z,81.29
2023-05-01T05:39:54.490Z,81.25
2023-05-01T05:40:54.229Z,81.26
2023-05-01T05:41:54.355Z,81.27
2023-05-01T05:42:54.194Z,81.23
2023-05-01T05:43:54.259Z,81.23
2023-05-01T05:44:54.182Z,81.13
2023-05-01T05:45:54.490Z,81.09
2023-05-01T05:46:54.160Z,81.11
2023-05-01T05:47:54.198Z,81.11
2023-05-01T05:48:54.565Z,81.12
2023-05-01T05:49:54.808Z,81.13
2023-05-01T05:50:54.485Z,81.17
2023-05-01T05:51:54.236Z,81.22
2023-05-01T05:52:54.091Z,81.17
2023-05-01T05:53:54.623Z,81.16
2023-05-01T05:54:54.747Z,81.18
2023-05-01T05:55:54.623Z,81.15
2023-05-01T05:56:54.034Z,81.14
2023-05-01T05:57:54.198Z,81.07
2023-05-01T05:58:54.047Z,81.06
2023-05-01T05:59:54.181Z,81.05
2023-05-01T06:00:54.624Z,81.03
2023-05-01T06:01:54.630Z,81.02
2023-05-01T06:02:54.735Z,81.01
2023-05-01T06:03:54.037Z,80.87
2023-05-01T06:04:53.949Z,80.79
2023-05-01T06:05:54.443Z,80.69
2023-05-01T06:06:54.854Z,80.72
2023-05-01T06:07:53.926Z,80.61
2023-05-01T06:08:54.636Z,80.51
2023-05-01T06:09:54.893Z,80.38
2023-05-01T06:10:54.642Z,80.28
2023-05-01T06:11:54.646Z,80.24
2023-05-01T06:13:02.881Z,80.31
2023-05-01T06:13:54.861Z,80.28
2023-05-01T06:14:54.641Z,80.16
2023-05-01T06:15:53.953Z,79.96
2023-05-01T06:16:53.809Z,79.74
2023-05-01T06:17:53.838Z,79.57
2023-05-01T06:18:53.809Z,79.59
2023-05-01T06:19:54.059Z,79.62
2023-05-01T06:20:53.842Z,79.71
2023-05-01T06:21:53.862Z,79.75
2023-05-01T06:22:53.868Z,79.80
2023-05-01T06:23:53.885Z,79.63
2023-05-01T06:24:53.893Z,79.54
2023-05-01T06:25:53.729Z,79.15
2023-05-01T06:26:53.685Z,79.03
2023-05-01T06:27:53.689Z,78.93
2023-05-01T06:28:53.678Z,78.65
2023-05-01T06:29:53.829Z,78.23
2023-05-01T06:30:53.695Z,78.03
2023-05-01T06:31:53.696Z,77.85
2023-05-01T06:32:53.665Z,77.76
2023-05-01T06:33:53.633Z,77.58
2023-05-01T06:34:53.656Z,77.67
2023-05-01T06:35:53.659Z,77.59
2023-05-01T06:36:53.592Z,77.52
2023-05-01T06:37:53.679Z,77.43
2023-05-01T06:38:53.567Z,77.34
2023-05-01T06:39:53.694Z,77.61
2023-05-01T06:40:53.522Z,77.58
2023-05-01T06:41:53.522Z,77.15
2023-05-01T06:42:53.665Z,75.73
2023-05-01T06:43:53.507Z,74.62
2023-05-01T06:44:53.483Z,74.32
2023-05-01T06:45:53.671Z,73.98
2023-05-01T06:46:53.468Z,74.12
2023-05-01T06:47:53.722Z,74.23
2023-05-01T06:48:53.442Z,74.39
2023-05-01T06:49:53.524Z,74.08
2023-05-01T06:50:53.683Z,74.19
2023-05-01T06:51:53.415Z,73.33
2023-05-01T06:52:53.382Z,73.18
2023-05-01T06:53:53.669Z,73.12
2023-05-01T06:54:53.362Z,72.92
2023-05-01T06:55:53.459Z,72.39
2023-05-01T06:56:53.340Z,71.92
2023-05-01T06:57:53.335Z,71.80
2023-05-01T06:58:53.587Z,71.51
2023-05-01T06:59:53.796Z,71.64
2023-05-01T07:00:53.895Z,71.60
2023-05-01T07:01:53.720Z,71.13
2023-05-01T07:02:53.768Z,69.92
2023-05-01T07:03:53.292Z,69.70
2023-05-01T07:04:53.262Z,69.95
2023-05-01T07:05:53.258Z,69.88
2023-05-01T07:06:53.701Z,69.78
2023-05-01T07:08:01.251Z,69.72
2023-05-01T07:08:54.196Z,68.76
2023-05-01T07:09:53.725Z,68.49
2023-05-01T07:10:53.182Z,68.17
2023-05-01T07:11:53.185Z,68.13
2023-05-01T07:12:53.146Z,67.39
2023-05-01T07:13:53.161Z,67.30
2023-05-01T07:14:53.134Z,67.30
2023-05-01T07:15:54.642Z,67.01
2023-05-01T07:16:53.223Z,67.51
2023-05-01T07:17:53.248Z,67.15
2023-05-01T07:18:53.076Z,67.31
2023-05-01T07:19:53.082Z,67.63
2023-05-01T07:20:53.063Z,66.77
2023-05-01T07:21:53.073Z,66.47
2023-05-01T07:22:53.376Z,66.86
2023-05-01T07:23:53.044Z,66.24
2023-05-01T07:24:53.008Z,66.13
2023-05-01T07:25:53.033Z,65.74
2023-05-01T07:26:53.011Z,65.47
2023-05-01T07:27:53.039Z,65.76
2023-05-01T07:28:52.962Z,65.65
2023-05-01T07:29:52.966Z,64.91
2023-05-01T07:30:52.962Z,64.77
2023-05-01T07:31:52.978Z,64.61
2023-05-01T07:32:53.002Z,64.95
2023-05-01T07:33:54.319Z,64.47
2023-05-01T07:34:52.898Z,64.55
2023-05-01T07:35:53.228Z,64.46
2023-05-01T07:36:52.890Z,64.86
2023-05-01T07:37:53.711Z,64.11
2023-05-01T07:38:53.257Z,63.71
2023-05-01T07:39:52.839Z,63.73
2023-05-01T07:40:52.925Z,62.42
2023-05-01T07:41:52.892Z,61.31
2023-05-01T07:42:54.448Z,61.35
2023-05-01T07:43:52.806Z,61.56
2023-05-01T07:44:52.911Z,60.84
2023-05-01T07:45:52.831Z,60.76
2023-05-01T07:46:52.778Z,59.91
2023-05-01T07:47:52.807Z,59.96
2023-05-01T07:48:52.738Z,60.00
2023-05-01T07:49:52.734Z,60.23
2023-05-01T07:50:52.729Z,59.95
2023-05-01T07:51:52.751Z,60.16
2023-05-01T07:52:52.705Z,60.30
2023-05-01T07:53:52.694Z,60.02
2023-05-01T07:54:52.706Z,59.67
2023-05-01T07:55:52.683Z,59.17
2023-05-01T07:56:52.679Z,58.90
2023-05-01T07:57:52.671Z,58.98
2023-05-01T07:58:52.634Z,58.23
2023-05-01T07:59:52.631Z,57.39
2023-05-01T08:00:52.611Z,57.73
2023-05-01T08:01:52.720Z,57.60
2023-05-01T08:02:52.671Z,57.00
2023-05-01T08:03:52.711Z,57.43
2023-05-01T08:04:52.641Z,56.35
2023-05-01T08:05:52.613Z,56.62
2023-05-01T08:06:52.740Z,56.18
2023-05-01T08:07:52.533Z,56.39
2023-05-01T08:08:52.485Z,55.76
2023-05-01T08:09:52.487Z,55.21
2023-05-01T08:10:52.470Z,55.54
2023-05-01T08:11:52.488Z,54.91
2023-05-01T08:12:52.438Z,55.11
2023-05-01T08:13:52.443Z,55.19
2023-05-01T08:14:52.423Z,54.65
2023-05-01T08:15:52.467Z,55.33
2023-05-01T08:16:52.419Z,54.66
2023-05-01T08:17:52.405Z,54.75
2023-05-01T08:18:52.394Z,55.28
2023-05-01T08:19:52.379Z,55.25
2023-05-01T08:20:52.346Z,54.67
2023-05-01T08:21:52.366Z,54.67
2023-05-01T08:22:52.324Z,55.06
2023-05-01T08:23:52.334Z,55.40
2023-05-01T08:24:52.735Z,55.47
2023-05-01T08:25:52.320Z,55.76
2023-05-01T08:26:52.277Z,55.68
2023-05-01T08:27:52.305Z,55.86
2023-05-01T08:28:52.257Z,55.48
2023-05-01T08:29:52.272Z,55.08
2023-05-01T08:30:52.257Z,55.67
2023-05-01T08:31:52.319Z,55.78
2023-05-01T08:32:52.259Z,55.23
2023-05-01T08:33:52.233Z,55.28
2023-05-01T08:34:52.197Z,54.70
2023-05-01T08:35:52.189Z,55.19
2023-05-01T08:36:52.167Z,54.63
2023-05-01T08:37:52.160Z,55.12
2023-05-01T08:38:52.160Z,54.21
2023-05-01T08:39:52.152Z,54.29
2023-05-01T08:40:52.126Z,54.13
2023-05-01T08:41:52.135Z,54.33
2023-05-01T08:42:52.101Z,54.60
2023-05-01T08:43:52.097Z,54.73
2023-05-01T08:44:52.094Z,54.28
2023-05-01T08:45:52.069Z,54.74
2023-05-01T08:46:52.092Z,54.99
2023-05-01T08:47:52.056Z,55.17
2023-05-01T08:48:52.038Z,55.57
2023-05-01T08:49:52.044Z,55.77
2023-05-01T08:50:52.029Z,55.58
2023-05-01T08:51:51.994Z,55.28
2023-05-01T08:52:51.989Z,55.19
2023-05-01T08:53:51.965Z,55.53
2023-05-01T08:54:51.990Z,55.68
2023-05-01T08:55:51.948Z,55.82
2023-05-01T08:56:51.953Z,55.77
2023-05-01T08:57:51.923Z,56.03
2023-05-01T08:58:51.924Z,56.12
2023-05-01T08:59:51.949Z,56.22
2023-05-01T09:00:51.893Z,57.16
2023-05-01T09:01:51.909Z,56.42
2023-05-01T09:02:51.983Z,56.43
2023-05-01T09:03:51.921Z,56.14
2023-05-01T09:04:51.872Z,55.98
2023-05-01T09:05:51.849Z,56.06
2023-05-01T09:06:51.951Z,55.54
2023-05-01T09:07:51.827Z,55.84
2023-05-01T09:08:51.820Z,55.82
2023-05-01T09:09:51.815Z,55.65
2023-05-01T09:10:51.816Z,55.13
2023-05-01T09:11:51.787Z,55.87
2023-05-01T09:12:51.777Z,56.22
2023-05-01T09:13:51.758Z,56.13
2023-05-01T09:14:51.779Z,56.06
2023-05-01T09:15:51.805Z,55.77
2023-05-01T09:16:51.753Z,56.59
2023-05-01T09:17:51.707Z,56.61
2023-05-01T09:18:51.681Z,56.22
2023-05-01T09:19:51.695Z,56.49
2023-05-01T09:20:51.688Z,55.66
2023-05-01T09:21:51.643Z,56.38
2023-05-01T09:22:51.651Z,55.92
2023-05-01T09:23:51.633Z,55.64
2023-05-01T09:24:51.646Z,55.48
2023-05-01T09:25:52.140Z,55.59
2023-05-01T09:26:51.610Z,55.52
2023-05-01T09:27:51.587Z,55.99
2023-05-01T09:28:51.622Z,56.11
2023-05-01T09:29:51.580Z,56.86
2023-05-01T09:30:51.578Z,56.97
2023-05-01T09:31:51.580Z,56.92
2023-05-01T09:32:51.546Z,57.68
2023-05-01T09:33:51.637Z,57.28
2023-05-01T09:34:51.553Z,57.60
2023-05-01T09:35:51.616Z,56.88
2023-05-01T09:36:51.491Z,56.99
2023-05-01T09:37:51.463Z,57.16
2023-05-01T09:38:51.479Z,56.99
2023-05-01T09:39:51.449Z,56.89
2023-05-01T09:40:51.447Z,57.51
2023-05-01T09:41:51.454Z,57.91
2023-05-01T09:42:51.440Z,57.58
2023-05-01T09:43:51.416Z,57.53
2023-05-01T09:44:51.401Z,57.64
2023-05-01T09:45:51.462Z,58.51
2023-05-01T09:46:51.376Z,58.11
2023-05-01T09:47:51.362Z,57.14
2023-05-01T09:48:51.351Z,57.87
2023-05-01T09:49:51.316Z,57.71
2023-05-01T09:50:51.374Z,57.72
2023-05-01T09:51:51.286Z,57.97
2023-05-01T09:52:51.312Z,58.04
2023-05-01T09:53:51.283Z,59.11
2023-05-01T09:54:51.301Z,59.11
2023-05-01T09:55:51.258Z,59.24
2023-05-01T09:56:51.319Z,59.65
2023-05-01T09:57:51.234Z,60.47
2023-05-01T09:58:51.274Z,59.50
2023-05-01T09:59:51.274Z,59.09
2023-05-01T10:00:51.390Z,59.12
2023-05-01T10:01:51.292Z,59.54
2023-05-01T10:02:51.407Z,58.42
2023-05-01T10:03:51.545Z,59.35
2023-05-01T10:04:51.173Z,59.49
2023-05-01T10:05:51.157Z,60.04
2023-05-01T10:06:51.223Z,60.15
2023-05-01T10:07:51.111Z,59.39
2023-05-01T10:08:51.098Z,59.13
2023-05-01T10:09:51.078Z,58.71
2023-05-01T10:10:51.123Z,58.84
2023-05-01T10:11:51.064Z,59.17
2023-05-01T10:12:51.060Z,58.51
2023-05-01T10:13:51.083Z,58.34
2023-05-01T10:14:51.181Z,58.60
2023-05-01T10:15:51.828Z,57.83
2023-05-01T10:16:51.755Z,58.82
2023-05-01T10:17:51.042Z,59.54
2023-05-01T10:18:50.990Z,58.92
2023-05-01T10:19:50.967Z,58.94
2023-05-01T10:20:50.990Z,58.41
2023-05-01T10:21:50.961Z,59.32
2023-05-01T10:22:50.972Z,58.38
2023-05-01T10:23:50.917Z,58.55
2023-05-01T10:24:50.928Z,59.72
2023-05-01T10:25:50.894Z,58.67
2023-05-01T10:26:50.915Z,58.10
2023-05-01T10:27:50.880Z,58.39
2023-05-01T10:28:50.867Z,58.38
2023-05-01T10:29:50.856Z,58.43
2023-05-01T10:30:50.867Z,58.54
2023-05-01T10:31:50.913Z,57.66
2023-05-01T10:32:50.875Z,57.86
2023-05-01T10:33:50.786Z,58.96
2023-05-01T10:34:50.792Z,58.16
2023-05-01T10:35:50.766Z,57.00
2023-05-01T10:36:50.794Z,57.41
2023-05-01T10:37:50.750Z,56.53
2023-05-01T10:38:50.746Z,56.90
2023-05-01T10:39:50.712Z,55.97
2023-05-01T10:40:50.852Z,56.05
2023-05-01T10:41:50.724Z,56.57
2023-05-01T10:42:50.723Z,55.92
2023-05-01T10:43:50.676Z,55.85
2023-05-01T10:44:50.673Z,56.81
2023-05-01T10:45:50.664Z,56.29
2023-05-01T10:46:50.705Z,55.76
2023-05-01T10:47:50.944Z,55.95
2023-05-01T10:48:50.634Z,56.10
2023-05-01T10:49:50.605Z,55.96
2023-05-01T10:50:50.608Z,56.44
2023-05-01T10:51:50.614Z,56.58
2023-05-01T10:52:50.596Z,57.05
2023-05-01T10:53:50.574Z,56.99
2023-05-01T10:54:50.576Z,56.79
2023-05-01T10:55:50.544Z,56.79
2023-05-01T10:56:50.575Z,56.83
2023-05-01T10:57:50.508Z,55.86
2023-05-01T10:58:50.512Z,56.11
2023-05-01T10:59:50.494Z,55.61
2023-05-01T11:00:50.493Z,56.46
2023-05-01T11:01:50.577Z,56.29
2023-05-01T11:02:50.512Z,55.62
2023-05-01T11:03:50.433Z,55.22
2023-05-01T11:04:50.587Z,55.77
2023-05-01T11:05:50.473Z,55.92
2023-05-01T11:06:50.480Z,56.71
2023-05-01T11:07:50.386Z,56.62
2023-05-01T11:08:50.494Z,56.29
2023-05-01T11:09:50.379Z,56.70
2023-05-01T11:10:50.385Z,56.19
2023-05-01T11:11:50.529Z,56.45
2023-05-01T11:12:50.359Z,56.60
2023-05-01T11:13:50.646Z,55.98
2023-05-01T11:14:50.330Z,55.18
2023-05-01T11:15:50.332Z,54.84
2023-05-01T11:16:50.791Z,55.58
2023-05-01T11:17:50.360Z,55.20
2023-05-01T11:18:50.279Z,55.94
2023-05-01T11:19:50.266Z,55.67
2023-05-01T11:20:50.261Z,56.11
2023-05-01T11:21:50.239Z,55.72
2023-05-01T11:22:50.271Z,55.41
2023-05-01T11:23:50.216Z,56.31
2023-05-01T11:24:50.324Z,55.28
2023-05-01T11:25:50.187Z,54.42
2023-05-01T11:26:50.189Z,54.27
2023-05-01T11:27:50.175Z,54.13
2023-05-01T11:28:50.191Z,54.08
2023-05-01T11:29:50.155Z,54.41
2023-05-01T11:30:51.182Z,54.22
2023-05-01T11:31:50.164Z,54.76
2023-05-01T11:32:51.068Z,54.46
2023-05-01T11:33:50.865Z,54.11
2023-05-01T11:34:50.112Z,54.66
2023-05-01T11:35:50.061Z,54.92
2023-05-01T11:36:50.080Z,54.97
2023-05-01T11:37:50.068Z,54.16
2023-05-01T11:38:50.075Z,55.06
2023-05-01T11:39:50.038Z,55.11
2023-05-01T11:40:50.125Z,54.58
2023-05-01T11:41:50.059Z,54.35
2023-05-01T11:42:50.002Z,54.32
2023-05-01T11:43:49.990Z,54.08
2023-05-01T11:44:49.985Z,53.77
2023-05-01T11:45:50.250Z,53.60
2023-05-01T11:46:50.019Z,54.89
2023-05-01T11:47:50.063Z,55.14
2023-05-01T11:48:50.227Z,55.06
2023-05-01T11:49:49.909Z,54.47
2023-05-01T11:50:49.923Z,54.74
2023-05-01T11:51:49.910Z,54.22
2023-05-01T11:52:49.915Z,54.04
2023-05-01T11:53:49.858Z,53.26
2023-05-01T11:54:49.891Z,53.79
2023-05-01T11:55:49.848Z,53.70
2023-05-01T11:56:49.922Z,54.26
2023-05-01T11:57:49.862Z,54.91
2023-05-01T11:58:49.850Z,54.49
2023-05-01T11:59:49.798Z,53.34
2023-05-01T12:00:49.808Z,52.13
2023-05-01T12:01:49.818Z,52.33
2023-05-01T12:02:49.923Z,52.48
2023-05-01T12:03:49.842Z,52.52
2023-05-01T12:04:49.783Z,52.10
2023-05-01T12:05:49.732Z,51.89
2023-05-01T12:06:50.015Z,51.91
2023-05-01T12:07:49.719Z,52.33
2023-05-01T12:08:49.719Z,51.49
2023-05-01T12:09:49.674Z,50.86
2023-05-01T12:10:49.704Z,51.11
2023-05-01T12:11:52.294Z,51.43
2023-05-01T12:12:49.667Z,51.54
2023-05-01T12:13:49.665Z,51.99
2023-05-01T12:14:49.644Z,52.53
2023-05-01T12:15:49.608Z,52.43
2023-05-01T12:16:49.736Z,52.50
2023-05-01T12:17:49.677Z,52.61
2023-05-01T12:18:49.600Z,52.17
2023-05-01T12:19:49.562Z,52.20
2023-05-01T12:20:49.577Z,52.01
2023-05-01T12:21:49.547Z,51.45
2023-05-01T12:22:49.548Z,51.27
2023-05-01T12:23:49.543Z,51.26
2023-05-01T12:24:49.535Z,51.41
2023-05-01T12:25:49.498Z,51.34
2023-05-01T12:26:49.512Z,51.52
2023-05-01T12:27:49.477Z,51.41
2023-05-01T12:28:49.490Z,50.50
2023-05-01T12:29:49.444Z,51.08
2023-05-01T12:30:49.516Z,50.98
2023-05-01T12:31:49.561Z,50.34
2023-05-01T12:32:49.479Z,50.46
2023-05-01T12:33:49.402Z,51.33
2023-05-01T12:34:49.424Z,50.87
2023-05-01T12:35:49.447Z,49.87
2023-05-01T12:36:49.395Z,50.09
2023-05-01T12:37:49.365Z,49.47
2023-05-01T12:38:49.351Z,49.61
2023-05-01T12:39:49.367Z,49.92
2023-05-01T12:40:49.543Z,50.00
2023-05-01T12:41:49.449Z,50.17
2023-05-01T12:42:49.351Z,50.35
2023-05-01T12:43:49.306Z,51.29
2023-05-01T12:44:49.308Z,50.35
2023-05-01T12:45:49.268Z,50.17
2023-05-01T12:46:49.317Z,49.74
2023-05-01T12:47:49.267Z,50.16
2023-05-01T12:48:49.272Z,50.22
2023-05-01T12:49:49.521Z,50.00
2023-05-01T12:50:49.902Z,50.45
2023-05-01T12:51:49.197Z,50.50
2023-05-01T12:52:49.197Z,50.09